createdAt,value
2022-10-17T00:01:08.878Z,23.4
2022-10-17T00:03:13.432Z,23.39
2022-10-17T00:05:17.790Z,23.38
2022-10-17T00:07:22.148Z,23.39
2022-10-17T00:09:26.513Z,23.38
2022-10-17T00:11:30.825Z,23.35
2022-10-17T00:13:35.181Z,23.34
2022-10-17T00:15:39.562Z,23.32
2022-10-17T00:17:43.930Z,23.31
2022-10-17T00:19:48.299Z,23.29
2022-10-17T00:21:52.668Z,23.28
2022-10-17T00:23:57.011Z,23.28
2022-10-17T00:26:01.339Z,23.29
2022-10-17T00:28:05.650Z,23.3
2022-10-17T00:30:10.028Z,23.27
2022-10-17T00:32:14.411Z,23.28
2022-10-17T00:34:18.756Z,23.27
2022-10-17T00:36:23.077Z,23.27
2022-10-17T00:38:27.409Z,23.26
2022-10-17T00:40:31.810Z,23.26
2022-10-17T00:42:36.159Z,23.26
2022-10-17T00:44:40.501Z,23.25
2022-10-17T00:46:44.865Z,23.25
2022-10-17T00:48:49.204Z,23.24
2022-10-17T00:50:53.543Z,23.24
2022-10-17T00:52:57.886Z,23.24
2022-10-17T00:55:02.215Z,23.25
2022-10-17T00:57:06.544Z,23.25
2022-10-17T00:59:10.939Z,23.24
2022-10-17T01:01:15.451Z,23.22
2022-10-17T01:03:19.991Z,23.22
2022-10-17T01:05:24.323Z,23.21
2022-10-17T01:07:30.740Z,23.19
2022-10-17T01:09:40.791Z,23.17
2022-10-17T01:11:45.096Z,23.14
2022-10-17T01:13:49.429Z,23.13
2022-10-17T01:15:53.765Z,23.11
2022-10-17T01:17:58.128Z,23.09
2022-10-17T01:20:02.460Z,23.08
2022-10-17T01:22:06.820Z,23.08
2022-10-17T01:24:11.149Z,23.07
2022-10-17T01:26:15.483Z,23.07
2022-10-17T01:28:19.951Z,23.07
2022-10-17T01:30:24.593Z,23.07
2022-10-17T01:32:29.256Z,23.07
2022-10-17T01:34:34.232Z,23.06
2022-10-17T01:36:38.547Z,23.06
2022-10-17T01:38:42.884Z,23.05
2022-10-17T01:40:47.225Z,23.03
2022-10-17T01:42:51.640Z,23.02
2022-10-17T01:44:55.974Z,22.99
2022-10-17T01:47:00.286Z,22.98
2022-10-17T01:49:04.706Z,22.97
2022-10-17T01:51:09.017Z,22.96
2022-10-17T01:53:13.351Z,22.95
2022-10-17T01:55:17.673Z,22.94
2022-10-17T01:57:21.989Z,22.94
2022-10-17T01:59:26.326Z,22.95
2022-10-17T02:01:30.803Z,22.95
2022-10-17T02:03:35.418Z,22.95
2022-10-17T02:05:39.733Z,22.96
2022-10-17T02:07:44.086Z,22.95
2022-10-17T02:09:48.474Z,22.92
2022-10-17T02:11:52.788Z,22.91
2022-10-17T02:13:57.110Z,22.91
2022-10-17T02:16:01.686Z,22.91
2022-10-17T02:18:06.023Z,22.91
2022-10-17T02:20:10.342Z,22.91
2022-10-17T02:22:14.748Z,22.92
2022-10-17T02:24:19.116Z,22.93
2022-10-17T02:26:23.427Z,22.92
2022-10-17T02:28:27.824Z,22.91
2022-10-17T02:30:32.372Z,22.92
2022-10-17T02:32:36.735Z,22.92
2022-10-17T02:34:41.100Z,22.92
2022-10-17T02:36:45.448Z,22.92
2022-10-17T02:38:49.788Z,22.92
2022-10-17T02:40:54.109Z,22.92
2022-10-17T02:42:58.482Z,22.91
2022-10-17T02:45:02.892Z,22.92
2022-10-17T02:47:07.296Z,22.92
2022-10-17T02:49:11.623Z,22.91
2022-10-17T02:51:15.949Z,22.88
2022-10-17T02:53:20.275Z,22.87
2022-10-17T02:55:24.606Z,22.85
2022-10-17T02:57:28.940Z,22.83
2022-10-17T03:01:37.668Z,22.81
2022-10-17T03:03:42.336Z,22.81
2022-10-17T03:05:46.647Z,22.81
2022-10-17T03:07:51.007Z,22.79
2022-10-17T03:09:55.305Z,22.79
2022-10-17T03:11:59.642Z,22.78
2022-10-17T03:14:03.960Z,22.77
2022-10-17T03:16:08.248Z,22.77
2022-10-17T03:18:12.632Z,22.77
2022-10-17T03:20:17.069Z,22.78
2022-10-17T03:22:21.374Z,22.76
2022-10-17T03:24:25.681Z,22.77
2022-10-17T03:26:30.020Z,22.76
2022-10-17T03:28:34.375Z,22.76
2022-10-17T03:30:38.891Z,22.77
2022-10-17T03:32:43.231Z,22.78
2022-10-17T03:34:47.558Z,22.77
2022-10-17T03:36:51.909Z,22.78
2022-10-17T03:38:56.208Z,22.78
2022-10-17T03:41:00.543Z,22.78
2022-10-17T03:43:04.933Z,22.78
2022-10-17T03:45:09.243Z,22.78
2022-10-17T03:47:14.220Z,22.78
2022-10-17T03:49:18.820Z,22.76
2022-10-17T03:51:23.220Z,22.77
2022-10-17T03:53:27.606Z,22.76
2022-10-17T03:55:31.948Z,22.75
2022-10-17T03:57:36.362Z,22.74
2022-10-17T03:59:45.853Z,22.74
2022-10-17T04:01:50.195Z,22.7
2022-10-17T04:03:54.553Z,22.68
2022-10-17T04:05:58.919Z,22.69
2022-10-17T04:08:04.641Z,22.67
2022-10-17T04:10:09.326Z,22.65
2022-10-17T04:12:13.681Z,22.64
2022-10-17T04:14:18.038Z,22.64
2022-10-17T04:16:22.476Z,22.64
2022-10-17T04:18:26.827Z,22.64
2022-10-17T04:20:31.156Z,22.65
2022-10-17T04:22:35.502Z,22.65
2022-10-17T04:24:39.806Z,22.65
2022-10-17T04:26:44.141Z,22.66
2022-10-17T04:28:48.509Z,22.66
2022-10-17T04:30:54.105Z,22.66
2022-10-17T04:32:58.562Z,22.65
2022-10-17T04:35:02.897Z,22.64
2022-10-17T04:37:07.223Z,22.65
2022-10-17T04:39:11.571Z,22.64
2022-10-17T04:41:17.105Z,22.64
2022-10-17T04:43:21.418Z,22.64
2022-10-17T04:45:25.770Z,22.65
2022-10-17T04:47:30.067Z,22.65
2022-10-17T04:49:34.468Z,22.64
2022-10-17T04:51:39.049Z,22.63
2022-10-17T04:53:43.378Z,22.62
2022-10-17T04:55:47.707Z,22.61
2022-10-17T04:57:52.087Z,22.6
2022-10-17T04:59:56.441Z,22.59
2022-10-17T05:02:01.043Z,22.59
2022-10-17T05:04:05.400Z,22.59
2022-10-17T05:06:09.769Z,22.6
2022-10-17T05:08:14.123Z,22.59
2022-10-17T05:10:18.432Z,22.57
2022-10-17T05:12:22.837Z,22.58
2022-10-17T05:14:27.179Z,22.62
2022-10-17T05:16:31.507Z,22.66
2022-10-17T05:18:35.826Z,22.68
2022-10-17T05:20:40.144Z,22.7
2022-10-17T05:22:44.489Z,22.74
2022-10-17T05:24:48.832Z,22.77
2022-10-17T05:26:53.169Z,22.78
2022-10-17T05:28:57.518Z,22.79
2022-10-17T05:31:02.137Z,22.83
2022-10-17T05:33:06.480Z,22.86
2022-10-17T05:35:10.835Z,22.87
2022-10-17T05:37:15.156Z,22.87
2022-10-17T05:39:19.516Z,22.91
2022-10-17T05:41:23.874Z,22.93
2022-10-17T05:43:28.214Z,22.94
2022-10-17T05:45:32.548Z,22.97
2022-10-17T05:47:36.865Z,23
2022-10-17T05:49:46.213Z,23.03
2022-10-17T05:51:55.963Z,23.06
2022-10-17T05:54:00.338Z,23.07
2022-10-17T05:56:04.665Z,23.09
2022-10-17T05:58:11.582Z,23.1
2022-10-17T06:00:51.297Z,23.13
2022-10-17T06:02:55.709Z,23.16
2022-10-17T06:05:00.160Z,23.18
2022-10-17T06:07:04.483Z,23.18
2022-10-17T06:09:08.826Z,23.16
2022-10-17T06:11:13.169Z,23.17
2022-10-17T06:13:17.553Z,23.18
2022-10-17T06:15:21.917Z,23.19
2022-10-17T06:17:26.261Z,23.2
2022-10-17T06:19:30.597Z,23.21
2022-10-17T06:21:34.937Z,23.22
2022-10-17T06:23:39.264Z,23.23
2022-10-17T06:25:43.626Z,23.25
2022-10-17T06:27:47.957Z,23.27
2022-10-17T06:29:52.547Z,23.28
2022-10-17T06:31:56.862Z,23.29
2022-10-17T06:34:01.215Z,23.27
2022-10-17T06:36:05.598Z,23.27
2022-10-17T06:38:09.952Z,23.25
2022-10-17T06:40:14.351Z,23.24
2022-10-17T06:42:18.699Z,23.21
2022-10-17T06:44:23.027Z,23.21
2022-10-17T06:46:27.352Z,23.21
2022-10-17T06:48:31.743Z,23.2
2022-10-17T06:50:36.104Z,23.19
2022-10-17T06:52:40.413Z,23.19
2022-10-17T06:54:44.786Z,23.2
2022-10-17T06:56:49.180Z,23.2
2022-10-17T06:58:53.539Z,23.21
2022-10-17T07:01:00.712Z,23.22
2022-10-17T07:03:05.996Z,23.24
2022-10-17T07:05:10.337Z,23.24
2022-10-17T07:07:14.675Z,23.22
2022-10-17T07:09:19.090Z,23.22
2022-10-17T07:11:23.516Z,23.23
2022-10-17T07:13:27.853Z,23.23
2022-10-17T07:15:32.247Z,23.25
2022-10-17T07:17:36.578Z,23.27
2022-10-17T07:19:40.953Z,23.27
2022-10-17T07:21:45.342Z,23.28
2022-10-17T07:23:49.679Z,23.3
2022-10-17T07:25:54.082Z,23.3
2022-10-17T07:27:58.384Z,23.31
2022-10-17T07:30:02.735Z,23.3
2022-10-17T07:32:07.093Z,23.32
2022-10-17T07:34:11.467Z,23.33
2022-10-17T07:36:15.865Z,23.35
2022-10-17T07:38:20.236Z,23.36
2022-10-17T07:40:24.579Z,23.37
2022-10-17T07:42:29.137Z,23.39
2022-10-17T07:44:33.687Z,23.4
2022-10-17T07:46:38.097Z,23.41
2022-10-17T07:48:42.548Z,23.43
2022-10-17T07:50:46.939Z,23.45
2022-10-17T07:52:51.306Z,23.47
2022-10-17T07:54:55.654Z,23.49
2022-10-17T07:57:00.001Z,23.5
2022-10-17T07:59:06.680Z,23.5
2022-10-17T08:01:14.798Z,23.51
2022-10-17T08:03:20.252Z,23.53
2022-10-17T08:05:24.579Z,23.54
2022-10-17T08:07:29.569Z,23.56
2022-10-17T08:09:34.200Z,23.58
2022-10-17T08:11:38.605Z,23.6
2022-10-17T08:13:42.973Z,23.62
2022-10-17T08:15:47.350Z,23.63
2022-10-17T08:17:51.744Z,23.65
2022-10-17T08:19:56.302Z,23.66
2022-10-17T08:22:00.619Z,23.68
2022-10-17T08:24:04.977Z,23.7
2022-10-17T08:26:09.332Z,23.72
2022-10-17T08:28:13.722Z,23.73
2022-10-17T08:30:18.071Z,23.75
2022-10-17T08:32:22.462Z,23.77
2022-10-17T08:34:26.779Z,23.78
2022-10-17T08:36:31.157Z,23.8
2022-10-17T08:38:36.017Z,23.81
2022-10-17T08:40:46.112Z,23.83
2022-10-17T08:42:50.483Z,23.84
2022-10-17T08:44:54.797Z,23.85
2022-10-17T08:46:59.202Z,23.88
2022-10-17T08:49:03.546Z,23.89
2022-10-17T08:51:14.629Z,23.9
2022-10-17T08:53:18.982Z,23.91
2022-10-17T08:55:23.305Z,23.94
2022-10-17T08:57:28.030Z,23.96
2022-10-17T08:59:33.729Z,23.98
2022-10-17T09:01:38.038Z,24.02
2022-10-17T09:03:42.389Z,24.04
2022-10-17T09:05:46.704Z,24.05
2022-10-17T09:07:51.120Z,24.07
2022-10-17T09:09:55.457Z,24.1
2022-10-17T09:11:59.801Z,24.12
2022-10-17T09:14:04.120Z,24.15
2022-10-17T09:16:08.483Z,24.17
2022-10-17T09:18:12.825Z,24.19
2022-10-17T09:20:20.092Z,24.23
2022-10-17T09:22:24.453Z,24.26
2022-10-17T09:24:28.856Z,24.29
2022-10-17T09:26:33.267Z,24.31
2022-10-17T09:28:37.828Z,24.33
2022-10-17T09:30:46.336Z,24.36
2022-10-17T09:32:51.004Z,24.38
2022-10-17T09:34:55.354Z,24.41
2022-10-17T09:36:59.651Z,24.43
2022-10-17T09:39:04.009Z,24.46
2022-10-17T09:41:20.066Z,24.49
2022-10-17T09:43:49.928Z,24.52
2022-10-17T09:45:54.295Z,24.54
2022-10-17T09:47:59.685Z,24.56
2022-10-17T09:50:06.102Z,24.58
2022-10-17T09:52:10.481Z,24.61
2022-10-17T09:54:14.829Z,24.63
2022-10-17T09:56:19.176Z,24.66
2022-10-17T09:58:23.513Z,24.67
2022-10-17T10:00:27.933Z,24.7
2022-10-17T10:02:33.250Z,24.72
2022-10-17T10:04:47.012Z,24.73
2022-10-17T10:07:09.809Z,24.77
2022-10-17T10:09:14.147Z,24.79
2022-10-17T10:11:18.635Z,24.81
2022-10-17T10:13:23.010Z,24.82
2022-10-17T10:15:27.541Z,24.85
2022-10-17T10:17:31.918Z,24.88
2022-10-17T10:19:36.256Z,24.91
2022-10-17T10:21:43.996Z,24.94
2022-10-17T10:23:50.629Z,24.96
2022-10-17T10:25:55.046Z,25
2022-10-17T10:28:00.740Z,25.02
2022-10-17T10:30:05.973Z,25.05
2022-10-17T10:32:10.321Z,25.07
2022-10-17T10:34:14.671Z,25.09
2022-10-17T10:36:19.005Z,25.12
2022-10-17T10:38:23.527Z,25.15
2022-10-17T10:40:27.821Z,25.2
2022-10-17T10:42:32.110Z,25.23
2022-10-17T10:44:36.467Z,25.25
2022-10-17T10:46:41.106Z,25.29
2022-10-17T10:48:45.514Z,25.32
2022-10-17T10:50:49.914Z,25.34
2022-10-17T10:52:54.299Z,25.36
2022-10-17T10:54:58.638Z,25.39
2022-10-17T10:57:02.937Z,25.42
2022-10-17T10:59:07.231Z,25.44
2022-10-17T11:01:11.614Z,25.46
2022-10-17T11:03:16.194Z,25.49
2022-10-17T11:05:20.517Z,25.52
2022-10-17T11:07:24.889Z,25.55
2022-10-17T11:09:31.326Z,25.57
2022-10-17T11:11:37.824Z,25.6
2022-10-17T11:13:42.129Z,25.64
2022-10-17T11:15:46.467Z,25.66
2022-10-17T11:17:50.814Z,25.69
2022-10-17T11:19:55.162Z,25.72
2022-10-17T11:21:59.499Z,25.75
2022-10-17T11:24:05.605Z,25.79
2022-10-17T11:26:12.574Z,25.82
2022-10-17T11:28:16.940Z,25.85
2022-10-17T11:30:21.328Z,25.86
2022-10-17T11:32:25.683Z,25.89
2022-10-17T11:34:30.901Z,25.92
2022-10-17T11:36:35.243Z,25.93
2022-10-17T11:38:39.583Z,25.97
2022-10-17T11:40:44.309Z,26
2022-10-17T11:42:49.936Z,26.05
2022-10-17T11:44:54.273Z,26.11
2022-10-17T11:46:58.667Z,26.14
2022-10-17T11:49:03.021Z,26.17
2022-10-17T11:54:12.126Z,26.21
2022-10-17T11:56:17.589Z,26.24
2022-10-17T11:58:22.072Z,26.25
2022-10-17T12:00:26.609Z,26.27
2022-10-17T12:02:31.181Z,26.27
2022-10-17T12:04:36.249Z,26.3
2022-10-17T12:06:41.643Z,26.31
2022-10-17T12:08:46.009Z,26.3
2022-10-17T12:10:50.330Z,26.31
2022-10-17T12:12:54.718Z,26.3
2022-10-17T12:14:59.012Z,26.31
2022-10-17T12:17:03.374Z,26.31
2022-10-17T12:19:07.731Z,26.32
2022-10-17T12:21:12.159Z,26.33
2022-10-17T12:23:16.525Z,26.34
2022-10-17T12:25:20.867Z,26.36
2022-10-17T12:27:25.246Z,26.36
2022-10-17T12:29:30.346Z,26.38
2022-10-17T12:31:34.704Z,26.38
2022-10-17T12:33:39.133Z,26.38
2022-10-17T12:35:43.498Z,26.39
2022-10-17T12:37:47.827Z,26.4
2022-10-17T12:39:52.192Z,26.42
2022-10-17T12:41:56.545Z,26.44
2022-10-17T12:44:00.937Z,26.47
2022-10-17T12:46:05.292Z,26.5
2022-10-17T12:48:09.599Z,26.51
2022-10-17T12:50:14.009Z,26.53
2022-10-17T12:52:18.312Z,26.55
2022-10-17T12:54:22.750Z,26.57
2022-10-17T12:56:27.083Z,26.58
2022-10-17T12:58:31.395Z,26.57
2022-10-17T13:00:35.782Z,26.56
2022-10-17T13:02:40.353Z,26.55
2022-10-17T13:04:44.663Z,26.54
2022-10-17T13:06:49.010Z,26.55
2022-10-17T13:08:55.528Z,26.56
2022-10-17T13:11:09.134Z,26.56
2022-10-17T13:13:13.629Z,26.58
2022-10-17T13:15:17.957Z,26.6
2022-10-17T13:17:22.294Z,26.64
2022-10-17T13:19:26.696Z,26.68
2022-10-17T13:21:31.302Z,26.71
2022-10-17T13:23:35.724Z,26.74
2022-10-17T13:25:40.072Z,26.77
2022-10-17T13:27:44.455Z,26.79
2022-10-17T13:29:48.828Z,26.81
2022-10-17T13:31:53.919Z,26.82
2022-10-17T13:33:58.294Z,26.81
2022-10-17T13:36:02.646Z,26.79
2022-10-17T13:38:07.020Z,26.79
2022-10-17T13:40:40.639Z,26.78
2022-10-17T13:42:53.904Z,26.74
2022-10-17T13:44:58.241Z,26.71
2022-10-17T13:47:02.565Z,26.68
2022-10-17T13:49:06.934Z,26.65
2022-10-17T13:51:11.399Z,26.62
2022-10-17T13:53:15.718Z,26.61
2022-10-17T13:55:20.169Z,26.6
2022-10-17T13:57:24.633Z,26.59
2022-10-17T13:59:29.117Z,26.56
2022-10-17T14:01:33.450Z,26.54
2022-10-17T14:03:48.098Z,26.54
2022-10-17T14:06:12.085Z,26.53
2022-10-17T14:08:20.419Z,26.49
2022-10-17T14:10:27.956Z,26.48
2022-10-17T14:12:32.314Z,26.47
2022-10-17T14:14:51.944Z,26.45
2022-10-17T14:17:14.181Z,26.44
2022-10-17T14:19:18.533Z,26.43
2022-10-17T14:21:40.785Z,26.4
2022-10-17T14:23:48.318Z,26.37
2022-10-17T14:25:52.697Z,26.35
2022-10-17T14:27:57.108Z,26.35
2022-10-17T14:30:01.420Z,26.31
2022-10-17T14:32:05.828Z,26.28
2022-10-17T14:34:10.203Z,26.24
2022-10-17T14:36:14.651Z,26.22
2022-10-17T14:38:19.027Z,26.2
2022-10-17T14:40:23.351Z,26.16
2022-10-17T14:42:27.735Z,26.13
2022-10-17T14:44:32.089Z,26.13
2022-10-17T14:46:36.447Z,26.11
2022-10-17T14:48:40.854Z,26.09
2022-10-17T14:52:49.562Z,26.1
2022-10-17T14:54:53.890Z,26.09
2022-10-17T14:56:58.260Z,26.1
2022-10-17T14:59:02.651Z,26.09
2022-10-17T15:01:14.256Z,26.08
2022-10-17T15:03:18.634Z,26.07
2022-10-17T15:05:23.333Z,26.09
2022-10-17T15:07:27.698Z,26.09
2022-10-17T15:09:32.053Z,26.07
2022-10-17T15:11:36.381Z,26.05
2022-10-17T15:13:44.758Z,26.04
2022-10-17T15:15:50.026Z,26.05
2022-10-17T15:17:54.799Z,26.02
2022-10-17T15:19:59.148Z,25.98
2022-10-17T15:22:03.457Z,25.95
2022-10-17T15:24:07.815Z,25.88
2022-10-17T15:26:12.241Z,25.84
2022-10-17T15:28:16.709Z,25.83
2022-10-17T15:30:21.579Z,25.82
2022-10-17T15:32:26.287Z,25.78
2022-10-17T15:34:30.627Z,25.76
2022-10-17T15:36:34.948Z,25.73
2022-10-17T15:38:39.315Z,25.69
2022-10-17T15:40:43.806Z,25.68
2022-10-17T15:42:48.142Z,25.65
2022-10-17T15:44:52.505Z,25.63
2022-10-17T15:46:56.881Z,25.6
2022-10-17T15:49:01.218Z,25.56
2022-10-17T15:51:05.586Z,25.52
2022-10-17T15:53:09.941Z,25.49
2022-10-17T15:55:14.412Z,25.48
2022-10-17T15:57:18.856Z,25.46
2022-10-17T15:59:23.234Z,25.42
2022-10-17T16:01:27.601Z,25.38
2022-10-17T16:03:31.962Z,25.33
2022-10-17T16:05:36.407Z,25.32
2022-10-17T16:07:41.231Z,25.26
2022-10-17T16:09:45.576Z,25.24
2022-10-17T16:11:49.981Z,25.21
2022-10-17T16:13:54.329Z,25.19
2022-10-17T16:15:58.707Z,25.16
2022-10-17T16:18:04.398Z,25.12
2022-10-17T16:20:13.304Z,25.07
2022-10-17T16:22:17.673Z,25.06
2022-10-17T16:24:22.120Z,25.05
2022-10-17T16:26:26.477Z,25.05
2022-10-17T16:28:30.868Z,25.04
2022-10-17T16:30:35.492Z,25.04
2022-10-17T16:32:39.828Z,25.04
2022-10-17T16:34:44.131Z,25
2022-10-17T16:36:48.519Z,24.99
2022-10-17T16:38:52.873Z,24.98
2022-10-17T16:40:57.252Z,24.98
2022-10-17T16:43:01.611Z,24.98
2022-10-17T16:45:05.996Z,24.99
2022-10-17T16:47:10.409Z,24.99
2022-10-17T16:49:14.808Z,24.98
2022-10-17T16:51:19.197Z,24.97
2022-10-17T16:53:23.616Z,24.96
2022-10-17T16:55:28.058Z,24.96
2022-10-17T16:57:32.458Z,24.96
2022-10-17T16:59:37.083Z,24.95
2022-10-17T17:01:41.459Z,24.94
2022-10-17T17:03:45.815Z,24.89
2022-10-17T17:05:50.134Z,24.88
2022-10-17T17:07:54.488Z,24.88
2022-10-17T17:09:58.858Z,24.89
2022-10-17T17:12:03.253Z,24.88
2022-10-17T17:14:07.561Z,24.89
2022-10-17T17:16:11.950Z,24.88
2022-10-17T17:18:16.375Z,24.89
2022-10-17T17:20:20.731Z,24.85
2022-10-17T17:22:25.195Z,24.81
2022-10-17T17:24:29.448Z,24.81
2022-10-17T17:26:33.770Z,24.81
2022-10-17T17:28:38.272Z,24.8
2022-10-17T17:30:42.980Z,24.79
2022-10-17T17:32:47.348Z,24.77
2022-10-17T17:34:51.706Z,24.75
2022-10-17T17:36:56.106Z,24.73
2022-10-17T17:39:00.506Z,24.68
2022-10-17T17:41:04.918Z,24.64
2022-10-17T17:43:09.353Z,24.6
2022-10-17T17:45:13.692Z,24.58
2022-10-17T17:47:18.076Z,24.56
2022-10-17T17:49:22.406Z,24.55
2022-10-17T17:51:28.240Z,24.53
2022-10-17T17:53:33.447Z,24.53
2022-10-17T17:55:37.839Z,24.52
2022-10-17T17:57:42.212Z,24.5
2022-10-17T17:59:46.536Z,24.47
2022-10-17T18:01:50.925Z,24.44
2022-10-17T18:03:55.535Z,24.43
2022-10-17T18:05:59.932Z,24.43
2022-10-17T18:08:04.290Z,24.45
2022-10-17T18:10:08.735Z,24.45
2022-10-17T18:12:18.114Z,24.47
2022-10-17T18:14:22.469Z,24.51
2022-10-17T18:16:27.009Z,24.51
2022-10-17T18:18:31.368Z,24.53
2022-10-17T18:20:35.930Z,24.55
2022-10-17T18:22:40.293Z,24.55
2022-10-17T18:24:44.704Z,24.52
2022-10-17T18:26:49.145Z,24.5
2022-10-17T18:28:53.501Z,24.48
2022-10-17T18:30:57.881Z,24.46
2022-10-17T18:33:02.252Z,24.43
2022-10-17T18:35:06.582Z,24.42
2022-10-17T18:37:10.948Z,24.43
2022-10-17T18:39:16.431Z,24.39
2022-10-17T18:41:20.860Z,24.36
2022-10-17T18:43:25.235Z,24.32
2022-10-17T18:45:29.597Z,24.31
2022-10-17T18:47:33.904Z,24.35
2022-10-17T18:49:38.316Z,24.4
